TAF and METAR

METAR for Istanbul Atatürk Airport

LTBA 192050Z 01006KT 8000 NSC 18/15 Q1020 NOSIG RMK RWY17L 01005KT RWY05 01004KT RWY23 02006KT
Report created 19. okt 22:50
wind 6 knots from N (010°) visibility 8000 meters No significant clouds. Temperature 18° with dewpoint at 15° (Humidity 82.65%) Pressure 1020 hPa no significant weather change expected the next couple of hours

TAF for Istanbul Atatürk Airport

TAF LTBA 191640Z 1918/2024 VRB02KT CAVOK BECMG 1919/1923 4000 BR SCT012 PROB40 TEMPO 2001/2004 2000 BKN012 BECMG 2006/2009 03012KT 9999 NSW BECMG 2015/2018 VRB02KT
Report created 19. okt 18:40

between 19. okt 20:00 - 20. okt 02:00

wind 2 knots from various directions Clear sky

becoming between 19. okt 21:00 - 20. okt 01:00

visibility 4000 meters mist scattered clouds (~50% cover) at 1200 feet

probably (~40%) temporarily between 20. okt 03:00 - 20. okt 06:00

visibility 2000 meters broken clouds (~75% cover) at 1200 feet

becoming between 20. okt 08:00 - 20. okt 11:00

wind 12 knots from NNE (030°) visibility > 10km

becoming between 20. okt 17:00 - 20. okt 20:00

wind 2 knots from various directions
Istanbul Atatürk Airport in Turkey at 37m

Latest 5 airports